Terminal Aerodrome Forecast
Issued by NWS

Home | Current Version | Previous Version | Text Only | Print | Product List | Glossary Off
Versions: 1 2 3 4 5 6 7 8 9 10 11 12 13 14 15 16 17 18 19 20 21 22 23 24 25

000
FTUS43 KGRB 191739
TAFCWA
TAF
KCWA 191739Z 1918/2018 27007KT P6SM VCSH SCT015 BKN025
      TEMPO 1918/1921 6SM -SHRA SCT025 BKN035
     FM192100 30006KT P6SM VCSH BKN035
     FM200300 32003KT 3SM BR SCT005 BKN010
     FM200600 VRB03KT 1/2SM FG OVC005
     FM201500 32005KT 3SM BR BKN008=

USA.gov is the U.S. government's official web portal to all federal, state and local government web resources and services.